Time;durP1;ratioP1;P1;durP2;ratioP2;P2;SDS_P1;SDS_P2;PMS_P1;PMS_P2;Temp;Humidity;BMP_temperature;BMP_pressure;BME280_temperature;BME280_humidity;BME280_pressure;Samples;Min_cycle;Max_cycle;Signal;HPM_P1;HPM_P2
2022/01/06 00:02:24;;;;;;;9.15;2.10;;;4.70;99.90;;;;;;5030604;28;20037;-73
2022/01/06 00:04:53;;;;;;;10.88;2.00;;;4.70;99.90;;;;;;5031322;28;20041;-73
2022/01/06 00:07:18;;;;;;;13.98;2.60;;;4.70;99.90;;;;;;5031094;28;20056;-73
2022/01/06 00:09:47;;;;;;;13.23;2.65;;;4.70;99.90;;;;;;5013663;28;20042;-73
2022/01/06 00:12:15;;;;;;;13.15;1.80;;;4.60;99.90;;;;;;5030908;28;20133;-73
2022/01/06 00:15:09;;;;;;;13.73;2.25;;;4.60;99.90;;;;;;5031326;28;20049;-73
2022/01/06 00:17:46;;;;;;;12.75;2.83;;;4.70;99.90;;;;;;5030478;28;20045;-73
2022/01/06 00:25:40;;;;;;;14.93;2.30;;;4.60;99.90;;;;;;5030955;28;20438;-73
2022/01/06 00:28:05;;;;;;;15.98;1.90;;;4.60;99.90;;;;;;5031296;28;20041;-73
2022/01/06 00:30:31;;;;;;;15.10;2.15;;;4.70;99.90;;;;;;5031847;28;20037;-71
2022/01/06 00:32:56;;;;;;;11.43;2.60;;;4.60;99.90;;;;;;5032108;28;20076;-72
2022/01/06 00:35:22;;;;;;;11.48;2.65;;;4.70;99.90;;;;;;5030792;28;20060;-72
2022/01/06 00:37:47;;;;;;;9.18;1.80;;;4.70;99.90;;;;;;5031756;28;20056;-72
2022/01/06 00:40:13;;;;;;;15.90;3.67;;;4.70;99.90;;;;;;5030118;28;20041;-71
2022/01/06 00:42:39;;;;;;;12.48;1.88;;;4.70;99.90;;;;;;5030660;28;20513;-72
2022/01/06 00:45:05;;;;;;;16.08;2.20;;;4.70;99.90;;;;;;5029515;28;20045;-72
2022/01/06 00:47:31;;;;;;;13.40;3.00;;;4.70;99.90;;;;;;5030341;28;20111;-72
2022/01/06 00:49:57;;;;;;;11.52;2.47;;;4.70;99.90;;;;;;5029867;28;20049;-72
2022/01/06 00:52:22;;;;;;;12.63;2.20;;;4.60;99.90;;;;;;5030537;28;20045;-72
2022/01/06 00:54:48;;;;;;;9.82;2.60;;;4.70;99.90;;;;;;5031049;28;20042;-72
2022/01/06 00:57:13;;;;;;;13.40;2.30;;;4.70;99.90;;;;;;5031477;28;20049;-72
2022/01/06 00:59:39;;;;;;;13.05;2.58;;;4.70;99.90;;;;;;5031143;28;20029;-72
2022/01/06 01:02:05;;;;;;;14.15;2.97;;;4.70;99.90;;;;;;5030334;28;20121;-72
2022/01/06 01:04:30;;;;;;;17.30;2.60;;;4.70;99.90;;;;;;5030808;28;20045;-73
2022/01/06 01:06:56;;;;;;;16.98;3.47;;;4.70;99.90;;;;;;5013067;28;20041;-72
2022/01/06 01:09:22;;;;;;;7.53;1.80;;;4.60;99.90;;;;;;5030518;28;20041;-73
2022/01/06 01:11:47;;;;;;;16.70;3.70;;;4.60;99.90;;;;;;5030168;28;20490;-72
2022/01/06 01:17:04;;;;;;;13.55;2.55;;;4.60;99.90;;;;;;5000152;28;20160;-73
2022/01/06 01:19:31;;;;;;;18.25;2.70;;;4.60;99.90;;;;;;5031516;28;20117;-72
2022/01/06 01:21:57;;;;;;;13.20;2.83;;;4.60;99.90;;;;;;5030761;28;20052;-72
2022/01/06 01:24:24;;;;;;;12.32;2.30;;;4.60;99.90;;;;;;5029107;28;20814;-72
2022/01/06 01:26:49;;;;;;;15.30;2.47;;;4.60;99.90;;;;;;5029013;28;20132;-73
2022/01/06 01:29:18;;;;;;;14.75;2.33;;;4.60;99.90;;;;;;5030473;28;20120;-73
2022/01/06 01:31:48;;;;;;;13.20;2.60;;;4.60;99.90;;;;;;5030138;28;20140;-73
2022/01/06 01:34:20;;;;;;;13.13;2.42;;;4.60;99.90;;;;;;5029137;28;20046;-72
2022/01/06 01:36:45;;;;;;;12.00;2.67;;;4.50;99.90;;;;;;5029006;28;20049;-72
2022/01/06 01:39:11;;;;;;;19.88;2.50;;;4.50;99.90;;;;;;5030643;28;20037;-72
2022/01/06 01:41:36;;;;;;;23.88;4.10;;;4.60;99.90;;;;;;5032483;28;20037;-72
2022/01/06 01:44:05;;;;;;;20.20;3.22;;;4.50;99.90;;;;;;5033858;28;20452;-72
2022/01/06 01:46:41;;;;;;;31.52;4.28;;;4.50;99.90;;;;;;5032501;28;20053;-73
2022/01/06 01:51:38;;;;;;;19.65;3.55;;;4.50;99.90;;;;;;5032426;28;20053;-73
2022/01/06 01:54:04;;;;;;;11.73;2.80;;;4.50;99.90;;;;;;5032154;28;20048;-74
2022/01/06 01:56:30;;;;;;;14.85;3.05;;;4.50;99.90;;;;;;5032330;28;20096;-74
2022/01/06 01:58:56;;;;;;;16.30;3.00;;;4.50;99.90;;;;;;5015676;28;20463;-74
2022/01/06 02:01:21;;;;;;;26.92;3.15;;;4.50;99.90;;;;;;5033125;28;20120;-73
2022/01/06 02:03:47;;;;;;;23.85;4.32;;;4.50;99.90;;;;;;5031943;28;20041;-73
2022/01/06 02:06:12;;;;;;;33.92;6.50;;;4.50;99.90;;;;;;5033414;28;20037;-74
2022/01/06 02:08:38;;;;;;;20.92;2.97;;;4.50;99.90;;;;;;5033443;28;20029;-74
2022/01/06 02:11:03;;;;;;;15.13;2.38;;;4.50;99.90;;;;;;5032078;28;20085;-73
2022/01/06 02:13:30;;;;;;;16.67;4.05;;;4.50;99.90;;;;;;5031786;28;20049;-73
2022/01/06 02:15:58;;;;;;;17.63;2.85;;;4.50;99.90;;;;;;5031920;28;20042;-73
2022/01/06 02:18:24;;;;;;;13.23;2.63;;;4.50;99.90;;;;;;5015874;28;20053;-72
2022/01/06 02:20:49;;;;;;;16.88;2.70;;;4.50;99.90;;;;;;5032344;28;20038;-73
2022/01/06 02:23:15;;;;;;;24.98;2.67;;;4.40;99.90;;;;;;5032896;28;20414;-73
2022/01/06 02:25:40;;;;;;;15.70;2.85;;;4.50;99.90;;;;;;5033200;28;20045;-73
2022/01/06 02:28:06;;;;;;;28.27;3.78;;;4.50;99.90;;;;;;5032890;28;20567;-74
2022/01/06 02:30:33;;;;;;;22.25;3.17;;;4.50;99.90;;;;;;5032901;28;20042;-73
2022/01/06 02:33:03;;;;;;;20.55;3.10;;;4.40;99.90;;;;;;5032711;28;20478;-74
2022/01/06 02:35:29;;;;;;;25.02;3.40;;;4.40;99.90;;;;;;5033684;28;20080;-73
2022/01/06 02:37:55;;;;;;;17.10;3.45;;;4.50;99.90;;;;;;5033130;28;20041;-73
2022/01/06 02:40:22;;;;;;;14.40;2.47;;;4.40;99.90;;;;;;5032008;28;20034;-73
2022/01/06 02:42:55;;;;;;;16.80;3.45;;;4.40;99.90;;;;;;5031489;28;20697;-73
2022/01/06 02:45:23;;;;;;;;;;;4.50;99.90;;;;;;5032080;28;20045;-74
2022/01/06 02:47:49;;;;;;;13.65;2.53;;;4.40;99.90;;;;;;5048501;28;19967;-75
2022/01/06 02:50:16;;;;;;;21.08;4.20;;;4.40;99.90;;;;;;5031644;28;20037;-74
2022/01/06 02:52:41;;;;;;;14.07;2.55;;;4.40;99.90;;;;;;5030135;28;20049;-73
2022/01/06 02:55:09;;;;;;;26.45;3.35;;;4.50;99.90;;;;;;5031498;28;20107;-73
2022/01/06 02:57:37;;;;;;;15.90;2.78;;;4.50;99.90;;;;;;5031150;28;20048;-73
2022/01/06 03:00:04;;;;;;;16.38;3.28;;;4.50;99.90;;;;;;5032674;28;20046;-73
2022/01/06 03:02:30;;;;;;;15.27;2.67;;;4.50;99.90;;;;;;5031832;28;20115;-73
2022/01/06 03:04:56;;;;;;;20.00;3.28;;;4.40;99.90;;;;;;5032363;28;20131;-73
2022/01/06 03:07:21;;;;;;;16.95;2.72;;;4.50;99.90;;;;;;5032323;28;20041;-73
2022/01/06 03:09:53;;;;;;;17.88;2.50;;;4.40;99.90;;;;;;5030847;28;20045;-74
2022/01/06 03:12:39;;;;;;;16.67;2.58;;;4.40;99.90;;;;;;5032043;28;20124;-74
2022/01/06 03:15:11;;;;;;;24.20;3.17;;;4.40;99.90;;;;;;5030955;28;20037;-73
2022/01/06 03:17:38;;;;;;;18.67;2.45;;;4.30;99.90;;;;;;5030882;28;20067;-73
2022/01/06 03:20:07;;;;;;;13.00;2.63;;;4.30;99.90;;;;;;5030727;28;20046;-73
2022/01/06 03:22:32;;;;;;;23.45;3.38;;;4.40;99.90;;;;;;5030435;28;20041;-73
2022/01/06 03:24:58;;;;;;;15.63;2.90;;;4.30;99.90;;;;;;5032171;28;20030;-73
2022/01/06 03:27:24;;;;;;;19.92;3.35;;;4.20;99.90;;;;;;5030460;28;20599;-74
2022/01/06 03:29:50;;;;;;;14.77;3.47;;;4.20;99.90;;;;;;5031905;28;20410;-74
2022/01/06 03:32:17;;;;;;;20.15;3.40;;;4.20;99.90;;;;;;5031469;28;20037;-74
2022/01/06 03:34:44;;;;;;;22.80;3.38;;;4.30;99.90;;;;;;5031726;28;20082;-73
2022/01/06 03:37:10;;;;;;;18.67;3.22;;;4.30;99.90;;;;;;5031833;28;20045;-75
2022/01/06 03:39:36;;;;;;;20.30;3.92;;;4.30;99.90;;;;;;5031865;28;20040;-73
2022/01/06 03:42:01;;;;;;;17.30;3.70;;;4.30;99.90;;;;;;5030784;28;20037;-75
2022/01/06 03:44:27;;;;;;;16.17;2.95;;;4.30;99.90;;;;;;5030927;28;20041;-73
2022/01/06 03:46:53;;;;;;;21.08;3.03;;;4.30;99.90;;;;;;5030391;28;20521;-74
2022/01/06 03:49:19;;;;;;;18.75;2.85;;;4.20;99.90;;;;;;5030232;28;20534;-73
2022/01/06 03:51:45;;;;;;;17.08;2.55;;;4.20;99.90;;;;;;5013430;28;20064;-73
2022/01/06 03:54:11;;;;;;;22.30;2.83;;;4.20;99.90;;;;;;5014032;28;20600;-73
2022/01/06 03:56:36;;;;;;;21.50;3.38;;;4.20;99.90;;;;;;5013650;28;20052;-73
2022/01/06 03:59:02;;;;;;;20.35;2.92;;;4.10;99.90;;;;;;5030256;28;20049;-75
2022/01/06 04:01:28;;;;;;;16.63;3.13;;;4.10;99.90;;;;;;5030723;28;20045;-74
2022/01/06 04:03:53;;;;;;;17.55;3.40;;;4.10;99.90;;;;;;5029656;28;20456;-73
2022/01/06 04:06:19;;;;;;;20.80;3.97;;;4.10;99.90;;;;;;5029923;28;20037;-73
2022/01/06 04:08:45;;;;;;;15.55;2.35;;;4.10;99.90;;;;;;5030201;28;20197;-73
2022/01/06 04:11:10;;;;;;;12.38;2.80;;;4.10;99.90;;;;;;5031117;28;20045;-73
2022/01/06 04:13:36;;;;;;;12.30;2.67;;;4.10;99.90;;;;;;5029854;28;20037;-73
2022/01/06 04:16:07;;;;;;;16.38;2.88;;;4.10;99.90;;;;;;5030021;28;20049;-74
2022/01/06 04:18:32;;;;;;;17.67;3.45;;;4.10;99.90;;;;;;5031262;28;20056;-73
2022/01/06 04:20:58;;;;;;;20.95;2.88;;;4.10;99.90;;;;;;5029671;28;20041;-72
2022/01/06 04:23:23;;;;;;;17.65;2.67;;;4.00;99.90;;;;;;5029555;28;20044;-72
2022/01/06 04:25:49;;;;;;;22.23;2.65;;;4.00;99.90;;;;;;5029829;28;20091;-72
2022/01/06 04:28:15;;;;;;;16.77;2.88;;;3.90;99.90;;;;;;5013357;28;20037;-72
2022/01/06 04:30:40;;;;;;;18.35;2.90;;;3.90;99.90;;;;;;5030971;28;20118;-74
2022/01/06 04:33:06;;;;;;;15.05;3.95;;;3.90;99.90;;;;;;5030803;28;20461;-73
2022/01/06 04:35:31;;;;;;;17.30;3.30;;;3.80;99.90;;;;;;5031083;28;20509;-72
2022/01/06 04:37:57;;;;;;;14.40;2.33;;;3.70;99.90;;;;;;5030961;28;20072;-73
2022/01/06 04:40:23;;;;;;;16.55;2.33;;;3.60;99.90;;;;;;5030928;28;20038;-73
2022/01/06 04:42:48;;;;;;;11.13;2.22;;;3.50;99.90;;;;;;5029206;28;20486;-72
2022/01/06 04:45:14;;;;;;;12.98;2.72;;;3.50;99.90;;;;;;5030791;28;20042;-72
2022/01/06 04:47:40;;;;;;;12.18;2.30;;;3.40;99.90;;;;;;5029629;28;20064;-72
2022/01/06 04:50:06;;;;;;;21.55;2.83;;;3.40;99.90;;;;;;5030952;28;20131;-72
2022/01/06 04:52:31;;;;;;;12.68;2.40;;;3.30;99.90;;;;;;5030413;28;20113;-72
2022/01/06 04:54:57;;;;;;;14.38;2.53;;;3.20;99.90;;;;;;5029535;28;20469;-73
2022/01/06 04:57:22;;;;;;;9.77;2.42;;;3.20;99.90;;;;;;5030663;28;20041;-72
2022/01/06 04:59:48;;;;;;;11.63;2.40;;;3.10;99.90;;;;;;5030612;28;20421;-73
2022/01/06 05:02:14;;;;;;;12.55;3.63;;;3.10;99.90;;;;;;5028535;28;20037;-72
2022/01/06 05:04:40;;;;;;;12.82;2.88;;;3.00;99.90;;;;;;5030709;28;20034;-72
2022/01/06 05:07:05;;;;;;;13.65;3.58;;;3.00;99.90;;;;;;5032900;28;20091;-72
2022/01/06 05:09:31;;;;;;;16.90;2.30;;;3.00;99.90;;;;;;5032471;28;20046;-74
2022/01/06 05:11:57;;;;;;;16.08;2.42;;;3.00;99.90;;;;;;5045715;28;20643;-73
2022/01/06 05:14:22;;;;;;;12.02;2.85;;;3.00;99.90;;;;;;5013763;28;20045;-74
2022/01/06 05:16:48;;;;;;;12.57;3.08;;;3.00;99.90;;;;;;5032970;28;20087;-71
2022/01/06 05:19:13;;;;;;;16.17;3.22;;;3.00;99.90;;;;;;5034407;28;20121;-71
2022/01/06 05:21:39;;;;;;;12.02;2.08;;;3.10;99.90;;;;;;5032851;28;20045;-70
2022/01/06 05:24:16;;;;;;;15.93;2.90;;;3.00;99.90;;;;;;5034185;28;20048;-72
2022/01/06 05:26:42;;;;;;;11.98;2.38;;;3.00;99.90;;;;;;5016315;28;20497;-71
2022/01/06 05:29:09;;;;;;;13.95;2.10;;;2.90;99.90;;;;;;5033021;28;20481;-71
2022/01/06 05:31:35;;;;;;;15.05;2.75;;;2.90;99.90;;;;;;5034034;28;20064;-71
2022/01/06 05:34:01;;;;;;;9.73;2.20;;;2.80;99.90;;;;;;5033968;28;20041;-71
2022/01/06 05:36:26;;;;;;;11.80;2.05;;;2.80;99.90;;;;;;5034025;28;20397;-71
2022/01/06 05:38:52;;;;;;;11.43;2.30;;;2.80;99.90;;;;;;5033937;28;20052;-72
2022/01/06 05:41:18;;;;;;;11.05;2.40;;;2.70;99.90;;;;;;5034027;28;20120;-71
2022/01/06 05:43:43;;;;;;;10.55;2.40;;;2.80;99.90;;;;;;5032629;28;20045;-72
2022/01/06 05:46:09;;;;;;;10.30;1.95;;;2.70;99.90;;;;;;5033992;28;20048;-72
2022/01/06 05:48:34;;;;;;;10.98;2.42;;;2.60;99.90;;;;;;5032696;28;20049;-71
2022/01/06 05:51:00;;;;;;;11.90;2.10;;;2.60;99.90;;;;;;5033684;28;20034;-71
2022/01/06 05:53:26;;;;;;;15.18;2.58;;;2.60;99.90;;;;;;5032336;28;20051;-71
2022/01/06 05:55:51;;;;;;;15.35;2.30;;;2.60;99.90;;;;;;5033861;28;20034;-71
2022/01/06 05:58:17;;;;;;;13.30;2.33;;;2.60;99.90;;;;;;5032181;28;20041;-71
2022/01/06 06:00:43;;;;;;;14.85;3.20;;;2.50;99.90;;;;;;5032501;28;20083;-71
2022/01/06 06:03:08;;;;;;;11.80;2.30;;;2.50;99.90;;;;;;5031409;28;20034;-71
2022/01/06 06:05:34;;;;;;;8.45;2.20;;;2.50;99.90;;;;;;5033476;28;20375;-72
2022/01/06 06:08:00;;;;;;;9.63;2.05;;;2.50;99.90;;;;;;5032318;28;20051;-71
2022/01/06 06:10:26;;;;;;;14.38;3.55;;;2.50;99.90;;;;;;5033513;28;20689;-71
2022/01/06 06:12:52;;;;;;;11.45;2.10;;;2.50;99.90;;;;;;5033166;28;20124;-71
2022/01/06 06:15:19;;;;;;;11.80;2.78;;;2.50;99.90;;;;;;5032148;28;20429;-71
2022/01/06 06:17:45;;;;;;;13.30;2.67;;;2.50;99.90;;;;;;5031925;28;20044;-72
2022/01/06 06:20:11;;;;;;;9.55;2.22;;;2.50;99.90;;;;;;5032150;28;20071;-71
2022/01/06 06:22:37;;;;;;;9.23;2.90;;;2.40;99.90;;;;;;5033060;28;20034;-72
2022/01/06 06:25:03;;;;;;;12.57;3.00;;;2.40;99.90;;;;;;5033248;28;20052;-72
2022/01/06 06:27:28;;;;;;;15.35;2.65;;;2.40;99.90;;;;;;5032688;28;20132;-72
2022/01/06 06:29:54;;;;;;;11.40;2.40;;;2.40;99.90;;;;;;5033862;28;20049;-71
2022/01/06 06:32:19;;;;;;;8.38;2.50;;;2.50;99.90;;;;;;5033126;28;20110;-71
2022/01/06 06:34:45;;;;;;;22.90;2.45;;;2.40;99.90;;;;;;5034402;28;20041;-72
2022/01/06 06:37:10;;;;;;;17.55;3.72;;;2.40;99.90;;;;;;5031883;28;20038;-71
2022/01/06 06:39:36;;;;;;;18.42;2.90;;;2.40;99.90;;;;;;5031547;28;20120;-71
2022/01/06 06:42:02;;;;;;;18.15;3.08;;;2.50;99.90;;;;;;5014829;28;20410;-71
2022/01/06 06:44:27;;;;;;;8.98;2.20;;;2.50;99.90;;;;;;5031455;28;20041;-71
2022/01/06 06:46:53;;;;;;;11.85;3.47;;;2.40;99.90;;;;;;5032702;28;20044;-71
2022/01/06 06:49:18;;;;;;;13.25;3.10;;;2.40;99.90;;;;;;5032644;28;20041;-70
2022/01/06 06:51:44;;;;;;;9.18;2.40;;;2.40;99.90;;;;;;5030962;28;20045;-71
2022/01/06 06:54:09;;;;;;;11.95;2.22;;;2.40;99.90;;;;;;5031240;28;20442;-72
2022/01/06 06:56:35;;;;;;;15.63;2.22;;;2.30;99.90;;;;;;5032574;28;20168;-72
2022/01/06 06:59:00;;;;;;;13.02;2.53;;;2.40;99.90;;;;;;5032529;28;20056;-71
2022/01/06 07:01:26;;;;;;;18.92;3.08;;;2.40;99.90;;;;;;5030504;28;20049;-71
2022/01/06 07:03:52;;;;;;;13.70;2.45;;;2.30;99.90;;;;;;5032158;28;20566;-71
2022/01/06 07:06:17;;;;;;;14.10;2.65;;;2.30;99.90;;;;;;5032544;28;20045;-72
2022/01/06 07:08:43;;;;;;;10.93;2.35;;;2.30;99.90;;;;;;5031021;28;20041;-71
2022/01/06 07:11:08;;;;;;;11.10;2.20;;;2.30;99.90;;;;;;5032229;28;20120;-71
2022/01/06 07:13:34;;;;;;;10.82;2.70;;;2.30;99.90;;;;;;5014162;28;20036;-71
2022/01/06 07:15:59;;;;;;;12.23;3.60;;;2.20;99.90;;;;;;5030697;28;20048;-73
2022/01/06 07:18:25;;;;;;;10.45;2.47;;;2.20;99.90;;;;;;5032207;28;20034;-71
2022/01/06 07:20:50;;;;;;;15.93;2.45;;;2.10;99.90;;;;;;5030954;28;20041;-71
2022/01/06 07:23:16;;;;;;;19.65;3.67;;;2.10;99.90;;;;;;5030343;28;20096;-71
2022/01/06 07:25:41;;;;;;;16.33;2.92;;;2.00;99.90;;;;;;5031972;28;20103;-71
2022/01/06 07:28:07;;;;;;;10.00;2.45;;;2.00;99.90;;;;;;5031771;28;20048;-71
2022/01/06 07:30:33;;;;;;;18.65;2.75;;;2.00;99.90;;;;;;5029640;28;20392;-71
2022/01/06 07:33:00;;;;;;;9.77;2.60;;;2.10;99.90;;;;;;5010593;28;20367;-71
2022/01/06 07:35:26;;;;;;;13.15;2.78;;;2.10;99.90;;;;;;5010980;28;20041;-72
2022/01/06 07:37:51;;;;;;;13.38;2.92;;;2.10;99.90;;;;;;5011470;28;20075;-72
2022/01/06 07:40:19;;;;;;;16.77;4.25;;;2.00;99.90;;;;;;5027324;28;20056;-72
2022/01/06 07:42:45;;;;;;;15.52;2.90;;;2.00;99.90;;;;;;5023583;28;20068;-72
2022/01/06 07:45:11;;;;;;;9.57;2.85;;;2.00;99.90;;;;;;5027107;28;20038;-72
2022/01/06 07:47:43;;;;;;;13.38;2.67;;;2.00;99.90;;;;;;5029551;28;20515;-71
2022/01/06 07:50:09;;;;;;;12.55;2.15;;;2.10;99.90;;;;;;5030481;28;20494;-72
2022/01/06 07:52:34;;;;;;;15.45;2.92;;;2.10;99.90;;;;;;5031216;28;20083;-73
2022/01/06 07:55:03;;;;;;;10.25;2.42;;;2.10;99.90;;;;;;5030227;28;20077;-73
2022/01/06 07:57:28;;;;;;;12.25;2.63;;;2.00;99.90;;;;;;5031434;28;20037;-72
2022/01/06 07:59:54;;;;;;;16.02;2.75;;;2.10;99.90;;;;;;5030643;28;20091;-72
2022/01/06 08:02:19;;;;;;;18.88;2.47;;;2.10;99.90;;;;;;5030674;28;20038;-72
2022/01/06 08:04:47;;;;;;;9.95;2.60;;;2.10;99.90;;;;;;5030150;28;20128;-72
2022/01/06 08:07:13;;;;;;;12.55;2.45;;;2.10;99.90;;;;;;5013562;28;20041;-73
2022/01/06 08:09:43;;;;;;;16.05;2.78;;;2.10;99.90;;;;;;5029904;28;20060;-72
2022/01/06 08:12:09;;;;;;;16.45;3.63;;;2.10;99.90;;;;;;5029651;28;20045;-72
2022/01/06 08:14:37;;;;;;;19.98;3.25;;;2.10;99.90;;;;;;5031278;28;20045;-72
2022/01/06 08:17:03;;;;;;;18.17;4.47;;;2.20;99.90;;;;;;5029946;28;20052;-73
2022/01/06 08:19:29;;;;;;;21.92;5.28;;;2.20;99.90;;;;;;5031073;28;20041;-72
2022/01/06 08:21:54;;;;;;;21.80;5.80;;;2.20;99.90;;;;;;5013055;28;20041;-71
2022/01/06 08:24:20;;;;;;;18.65;4.65;;;2.30;99.90;;;;;;5030922;28;20033;-72
2022/01/06 08:26:45;;;;;;;18.23;5.30;;;2.30;99.90;;;;;;5029548;28;20049;-72
2022/01/06 08:29:11;;;;;;;26.65;6.40;;;2.30;99.90;;;;;;5030882;28;20121;-72
2022/01/06 08:31:39;;;;;;;33.50;8.95;;;2.30;99.90;;;;;;5029452;28;20034;-72
2022/01/06 08:34:04;;;;;;;27.58;6.60;;;2.30;99.90;;;;;;5029423;28;20050;-72
2022/01/06 08:36:30;;;;;;;33.67;10.93;;;2.30;99.90;;;;;;5029635;28;20034;-71
2022/01/06 08:38:56;;;;;;;34.38;9.05;;;2.30;99.90;;;;;;5029550;28;20038;-72
2022/01/06 08:41:21;;;;;;;20.90;5.63;;;2.30;99.90;;;;;;5013110;28;20168;-72
2022/01/06 08:43:47;;;;;;;30.60;5.65;;;2.40;99.90;;;;;;5030720;28;20073;-73
2022/01/06 08:46:13;;;;;;;14.60;4.55;;;2.40;99.90;;;;;;5029812;28;20490;-72
2022/01/06 08:48:38;;;;;;;20.05;3.80;;;2.40;99.90;;;;;;5031491;28;20037;-73
2022/01/06 08:51:04;;;;;;;15.25;3.50;;;2.40;99.90;;;;;;5034900;28;20143;-73
2022/01/06 08:53:29;;;;;;;17.83;3.92;;;2.40;99.90;;;;;;5033198;28;20128;-72
2022/01/06 08:55:55;;;;;;;21.38;4.78;;;2.40;99.90;;;;;;5034804;28;20038;-72
2022/01/06 08:58:23;;;;;;;19.70;3.78;;;2.40;99.90;;;;;;5034622;28;20048;-74
2022/01/06 09:00:49;;;;;;;17.17;2.97;;;2.40;99.90;;;;;;5033382;28;20038;-72
2022/01/06 09:03:15;;;;;;;25.33;5.45;;;2.50;99.90;;;;;;5032430;28;20044;-73
2022/01/06 09:05:40;;;;;;;31.17;7.20;;;2.50;99.90;;;;;;5033215;28;20033;-72
2022/01/06 09:08:06;;;;;;;27.20;7.18;;;2.60;99.90;;;;;;5034701;28;20083;-72
2022/01/06 09:10:34;;;;;;;21.85;5.45;;;2.70;99.90;;;;;;5034577;28;20160;-74
2022/01/06 09:13:03;;;;;;;28.75;6.25;;;2.60;99.90;;;;;;5016720;28;20052;-72
2022/01/06 09:15:29;;;;;;;26.77;5.47;;;2.70;99.90;;;;;;5034553;28;20048;-72
2022/01/06 09:17:59;;;;;;;17.67;4.28;;;2.70;99.90;;;;;;5035191;28;20050;-73
2022/01/06 09:20:26;;;;;;;25.70;6.53;;;2.70;99.90;;;;;;5035435;28;20557;-74
2022/01/06 09:22:52;;;;;;;23.30;4.63;;;2.80;99.90;;;;;;5016541;28;20071;-72
2022/01/06 09:25:18;;;;;;;22.77;4.63;;;2.80;99.90;;;;;;5033360;28;20037;-72
2022/01/06 09:27:43;;;;;;;14.82;3.78;;;2.80;99.90;;;;;;5034163;28;20042;-73
2022/01/06 09:30:11;;;;;;;20.45;4.55;;;2.80;99.90;;;;;;5034228;28;20109;-73
2022/01/06 09:32:37;;;;;;;22.10;4.57;;;2.90;99.90;;;;;;5033687;28;20160;-74
2022/01/06 09:35:03;;;;;;;20.80;4.30;;;2.90;99.90;;;;;;5033026;28;20045;-72
2022/01/06 09:37:28;;;;;;;10.30;3.63;;;2.90;99.90;;;;;;5016317;28;20048;-73
2022/01/06 09:39:56;;;;;;;23.63;4.22;;;3.00;99.90;;;;;;5016158;28;20034;-72
2022/01/06 09:42:22;;;;;;;13.52;3.47;;;3.10;99.90;;;;;;5032288;28;20481;-73
2022/01/06 09:44:49;;;;;;;19.63;3.17;;;3.10;99.90;;;;;;5032556;28;20051;-74
2022/01/06 09:47:15;;;;;;;19.73;4.22;;;3.10;99.90;;;;;;5032546;28;20049;-74
2022/01/06 09:49:44;;;;;;;24.05;5.80;;;3.20;99.90;;;;;;5032879;28;20132;-73
2022/01/06 09:52:09;;;;;;;29.23;5.50;;;3.20;99.90;;;;;;5032042;28;20042;-75
2022/01/06 09:54:37;;;;;;;17.90;3.67;;;3.20;99.90;;;;;;5032667;28;20068;-74
2022/01/06 09:57:04;;;;;;;24.23;4.13;;;3.30;99.90;;;;;;5033717;28;20045;-74
2022/01/06 09:59:30;;;;;;;14.85;3.55;;;3.40;99.90;;;;;;5034035;28;20065;-73
2022/01/06 10:01:56;;;;;;;25.13;4.53;;;3.40;99.90;;;;;;5031907;28;20072;-73
2022/01/06 10:04:27;;;;;;;27.15;4.10;;;3.40;99.90;;;;;;5033629;28;20037;-72
2022/01/06 10:07:02;;;;;;;17.10;3.70;;;3.40;99.90;;;;;;5033635;28;20077;-72
2022/01/06 10:09:28;;;;;;;24.98;4.90;;;3.50;99.90;;;;;;5033419;28;20091;-71
2022/01/06 10:11:56;;;;;;;20.67;5.18;;;3.50;99.90;;;;;;5031644;28;20053;-74
2022/01/06 10:14:30;;;;;;;16.88;3.88;;;3.60;99.90;;;;;;5033510;28;20099;-74
2022/01/06 10:16:57;;;;;;;19.00;4.85;;;3.60;99.90;;;;;;5031989;28;20064;-74
2022/01/06 10:19:23;;;;;;;28.63;4.25;;;3.60;99.90;;;;;;5031953;28;20107;-73
2022/01/06 10:21:56;;;;;;;32.03;9.00;;;3.70;99.90;;;;;;5015268;28;20045;-74
2022/01/06 10:24:23;;;;;;;31.17;5.72;;;3.70;99.90;;;;;;5032143;28;20110;-73
2022/01/06 10:27:07;;;;;;;26.70;4.60;;;3.80;99.90;;;;;;5031822;28;20102;-73
2022/01/06 10:29:40;;;;;;;30.67;5.68;;;3.80;99.90;;;;;;5015910;28;20510;-73
2022/01/06 10:32:08;;;;;;;21.50;4.90;;;3.80;99.90;;;;;;5035041;28;20041;-73
2022/01/06 10:34:36;;;;;;;18.42;4.25;;;3.80;99.90;;;;;;5036951;28;20060;-74
2022/01/06 10:37:03;;;;;;;19.13;4.57;;;3.80;99.90;;;;;;5020739;28;20465;-73
2022/01/06 10:39:41;;;;;;;22.48;4.65;;;3.90;99.90;;;;;;5016208;28;20041;-71
2022/01/06 10:42:07;;;;;;;24.33;4.10;;;3.90;99.90;;;;;;5015150;28;20390;-71
2022/01/06 10:44:33;;;;;;;13.43;3.60;;;4.00;99.90;;;;;;5015000;28;20037;-71
2022/01/06 10:46:59;;;;;;;14.70;4.03;;;4.00;99.90;;;;;;5014997;28;20056;-71
2022/01/06 10:49:25;;;;;;;23.92;3.80;;;4.10;99.90;;;;;;5032516;28;20242;-70
2022/01/06 10:51:51;;;;;;;19.35;3.30;;;4.20;99.90;;;;;;5030963;28;20056;-71
2022/01/06 10:54:22;;;;;;;18.10;3.88;;;4.20;99.90;;;;;;5032671;28;20033;-70
2022/01/06 10:57:00;;;;;;;21.52;4.82;;;4.20;99.90;;;;;;5032350;28;20640;-72
2022/01/06 10:59:29;;;;;;;22.58;4.43;;;4.20;99.90;;;;;;5028563;28;20038;-71
2022/01/06 11:01:55;;;;;;;18.25;3.13;;;4.30;99.90;;;;;;5013179;28;20040;-72
2022/01/06 11:04:21;;;;;;;23.20;3.97;;;4.30;99.90;;;;;;5031372;28;20107;-70
2022/01/06 11:06:46;;;;;;;15.05;3.22;;;4.30;99.90;;;;;;5029959;28;20490;-72
2022/01/06 11:09:12;;;;;;;25.98;4.38;;;4.40;99.90;;;;;;5031331;28;20045;-70
2022/01/06 11:14:23;;;;;;;21.75;3.45;;;4.50;99.90;;;;;;5031972;28;20056;-72
2022/01/06 11:16:49;;;;;;;27.55;3.50;;;4.40;99.90;;;;;;5031073;28;20060;-70
2022/01/06 11:19:15;;;;;;;25.38;3.80;;;4.50;99.90;;;;;;5032261;28;20045;-70
2022/01/06 11:21:50;;;;;;;16.08;3.05;;;4.50;99.90;;;;;;5030043;28;20430;-70
2022/01/06 11:24:23;;;;;;;19.58;4.15;;;4.60;99.90;;;;;;5030789;28;20033;-71
2022/01/06 11:27:10;;;;;;;14.68;3.97;;;4.60;99.90;;;;;;5030586;28;20034;-72
2022/01/06 11:29:40;;;;;;;17.17;3.72;;;4.70;99.90;;;;;;5032603;28;20037;-71
2022/01/06 11:32:23;;;;;;;21.20;4.53;;;4.70;99.90;;;;;;5014023;28;20049;-72
2022/01/06 11:35:08;;;;;;;21.40;3.63;;;4.80;99.90;;;;;;5152171;27;1219526;-72
2022/01/06 11:37:46;;;;;;;24.60;4.70;;;4.80;99.90;;;;;;5135045;27;20046;-72
2022/01/06 11:40:14;;;;;;;16.33;3.03;;;4.80;99.90;;;;;;5170941;27;20555;-72
2022/01/06 11:42:40;;;;;;;26.55;3.95;;;4.80;99.90;;;;;;5116752;27;20075;-72
2022/01/06 11:45:06;;;;;;;15.25;3.55;;;4.90;99.90;;;;;;5131492;27;20096;-72
2022/01/06 11:47:37;;;;;;;11.55;3.17;;;4.90;99.90;;;;;;5150022;27;20043;-72
2022/01/06 11:50:08;;;;;;;24.45;3.58;;;5.10;99.90;;;;;;5151259;27;20038;-73
2022/01/06 11:52:34;;;;;;;13.70;3.42;;;5.00;99.90;;;;;;5133568;27;20096;-73
2022/01/06 11:55:04;;;;;;;15.50;3.50;;;5.10;99.90;;;;;;5131547;27;20039;-74
2022/01/06 11:57:37;;;;;;;25.45;3.65;;;5.10;99.90;;;;;;5131844;27;20061;-74
2022/01/06 12:00:26;;;;;;;27.25;3.72;;;5.10;99.90;;;;;;5114080;27;20122;-73
2022/01/06 12:03:10;;;;;;;16.15;4.20;;;5.10;99.90;;;;;;5149139;27;20088;-71
2022/01/06 12:05:52;;;;;;;20.60;5.25;;;5.20;99.90;;;;;;5131351;27;20380;-71
2022/01/06 12:08:21;;;;;;;13.63;3.00;;;5.20;99.90;;;;;;5132265;27;20526;-72
2022/01/06 12:10:49;;;;;;;12.75;3.10;;;5.20;99.90;;;;;;5149447;27;20043;-73
2022/01/06 12:13:16;;;;;;;19.05;4.80;;;5.20;99.90;;;;;;5149034;27;20035;-73
2022/01/06 12:15:56;;;;;;;16.05;3.17;;;5.20;99.90;;;;;;5130746;27;20058;-73
2022/01/06 12:18:28;;;;;;;13.63;2.65;;;5.30;99.90;;;;;;5130632;27;20039;-75
2022/01/06 12:20:56;;;;;;;19.27;3.00;;;5.40;99.90;;;;;;5130534;27;20103;-75
2022/01/06 12:23:22;;;;;;;22.25;3.08;;;5.30;99.90;;;;;;5130052;27;20043;-73
2022/01/06 12:25:59;;;;;;;13.15;2.80;;;5.30;99.90;;;;;;5149000;27;20560;-74
2022/01/06 12:28:26;;;;;;;15.15;3.20;;;5.30;99.90;;;;;;5130570;27;20114;-72
2022/01/06 12:31:01;;;;;;;13.30;3.70;;;5.30;99.90;;;;;;5149048;27;20031;-73
2022/01/06 12:33:30;;;;;;;20.35;2.65;;;5.30;99.90;;;;;;5148584;27;20088;-74
2022/01/06 12:35:56;;;;;;;12.52;2.92;;;5.30;99.90;;;;;;5130303;27;20039;-76
2022/01/06 12:38:34;;;;;;;14.25;3.35;;;5.40;99.90;;;;;;5130310;27;20027;-75
2022/01/06 12:41:00;;;;;;;22.35;3.40;;;5.40;99.90;;;;;;5130491;27;20043;-72
2022/01/06 12:43:29;;;;;;;16.90;2.80;;;5.40;99.90;;;;;;5148629;27;20045;-73
2022/01/06 12:46:07;;;;;;;11.43;2.63;;;5.50;99.90;;;;;;5119047;27;20104;-74
2022/01/06 12:48:38;;;;;;;16.88;3.38;;;5.40;99.90;;;;;;5116793;27;20047;-75
2022/01/06 12:51:04;;;;;;;21.02;3.53;;;5.50;99.90;;;;;;5116687;27;20039;-74
2022/01/06 12:53:37;;;;;;;20.08;3.25;;;5.50;99.90;;;;;;5116156;27;20127;-74
2022/01/06 12:56:03;;;;;;;;;;;5.60;99.90;;;;;;5116869;27;20039;-77
2022/01/06 12:58:34;;;;;;;22.92;3.92;;;5.60;99.90;;;;;;5116289;27;19948;-75
2022/01/06 13:01:05;;;;;;;25.20;2.80;;;5.50;99.90;;;;;;5116269;27;20039;-74
2022/01/06 13:03:37;;;;;;;13.70;3.03;;;5.50;99.90;;;;;;5115891;27;20035;-74